Time;durP1;ratioP1;P1;durP2;ratioP2;P2;SDS_P1;SDS_P2;PMS_P1;PMS_P2;Temp;Humidity;BMP_temperature;BMP_pressure;BME280_temperature;BME280_humidity;BME280_pressure;Samples;Min_cycle;Max_cycle;Signal;HPM_P1;HPM_P2
2023/04/10 00:00:55;;;;;;;9.10;6.65;;;4.30;99.90;;;;;;487315;244;27434;-74
2023/04/10 00:02:53;;;;;;;12.52;8.50;;;4.40;99.90;;;;;;487027;244;27527;-74
2023/04/10 00:04:54;;;;;;;12.02;8.43;;;4.40;99.90;;;;;;487090;244;27526;-74
2023/04/10 00:06:55;;;;;;;11.12;7.75;;;4.40;99.90;;;;;;487284;244;27391;-74
2023/04/10 00:08:56;;;;;;;11.45;7.53;;;4.40;99.90;;;;;;487253;244;27439;-74
2023/04/10 00:10:58;;;;;;;8.82;6.65;;;4.50;99.90;;;;;;487264;244;28399;-74
2023/04/10 00:12:59;;;;;;;10.20;6.90;;;4.50;99.90;;;;;;487287;244;27844;-74
2023/04/10 00:15:00;;;;;;;12.15;7.00;;;4.50;99.90;;;;;;487229;244;27522;-74
2023/04/10 00:17:01;;;;;;;8.95;7.55;;;4.50;99.90;;;;;;487231;244;27482;-74
2023/04/10 00:19:03;;;;;;;12.07;8.75;;;4.40;99.90;;;;;;487218;243;27450;-74
2023/04/10 00:21:05;;;;;;;10.60;8.00;;;4.60;99.90;;;;;;487293;244;27455;-74
2023/04/10 00:23:05;;;;;;;12.20;8.65;;;4.60;99.90;;;;;;487280;244;27395;-75
2023/04/10 00:25:07;;;;;;;8.95;7.37;;;4.60;99.90;;;;;;487185;244;27919;-75
2023/04/10 00:27:08;;;;;;;10.50;7.95;;;4.70;99.90;;;;;;487237;244;27852;-74
2023/04/10 00:29:09;;;;;;;11.12;8.23;;;4.70;99.90;;;;;;487241;243;27540;-75
2023/04/10 00:31:10;;;;;;;8.90;7.30;;;4.80;99.90;;;;;;487310;244;27495;-74
2023/04/10 00:33:12;;;;;;;8.00;6.80;;;4.70;99.90;;;;;;487283;244;27402;-74
2023/04/10 00:35:13;;;;;;;10.20;7.68;;;4.60;99.90;;;;;;487170;243;27511;-74
2023/04/10 00:37:14;;;;;;;10.02;7.60;;;4.50;99.90;;;;;;487251;244;27456;-74
2023/04/10 00:39:15;;;;;;;7.70;6.00;;;4.20;99.90;;;;;;487258;244;28030;-75
2023/04/10 00:41:17;;;;;;;8.52;6.78;;;4.00;99.90;;;;;;487275;244;27950;-74
2023/04/10 00:43:19;;;;;;;10.18;6.45;;;3.80;99.90;;;;;;487270;243;27962;-74
2023/04/10 00:45:19;;;;;;;9.18;6.93;;;3.60;99.90;;;;;;487159;244;27475;-75
2023/04/10 00:47:20;;;;;;;7.95;6.00;;;3.60;99.90;;;;;;487243;244;27427;-74
2023/04/10 00:49:22;;;;;;;7.57;6.40;;;3.50;99.90;;;;;;487273;244;27426;-75
2023/04/10 00:51:23;;;;;;;7.93;6.45;;;3.60;99.90;;;;;;487312;244;27536;-75
2023/04/10 00:53:24;;;;;;;7.57;6.18;;;3.50;99.90;;;;;;487273;244;27402;-74
2023/04/10 00:55:25;;;;;;;7.43;5.75;;;3.60;99.90;;;;;;487190;244;27482;-74
2023/04/10 00:57:27;;;;;;;9.57;7.00;;;3.60;99.90;;;;;;487250;244;27495;-74
2023/04/10 00:59:28;;;;;;;8.48;6.78;;;3.70;99.90;;;;;;487278;243;27902;-74
2023/04/10 01:01:29;;;;;;;7.70;6.80;;;3.70;99.90;;;;;;487281;244;27932;-74
2023/04/10 01:03:30;;;;;;;7.57;6.75;;;3.70;99.90;;;;;;487235;244;29038;-74
2023/04/10 01:05:32;;;;;;;8.85;7.30;;;3.80;99.90;;;;;;487197;244;27502;-74
2023/04/10 01:07:33;;;;;;;8.93;6.18;;;3.80;99.90;;;;;;487241;243;27470;-75
2023/04/10 01:09:35;;;;;;;8.20;7.10;;;3.90;99.90;;;;;;487260;244;27400;-74
2023/04/10 01:11:35;;;;;;;8.50;6.75;;;4.00;99.90;;;;;;487252;244;27521;-74
2023/04/10 01:13:37;;;;;;;9.20;7.20;;;4.00;99.90;;;;;;487259;244;27408;-74
2023/04/10 01:15:38;;;;;;;9.85;7.50;;;4.10;99.90;;;;;;487172;244;27434;-74
2023/04/10 01:17:39;;;;;;;8.32;6.45;;;4.10;99.90;;;;;;487191;244;27408;-74
2023/04/10 01:19:40;;;;;;;7.32;6.05;;;4.10;99.90;;;;;;487278;244;27448;-74
2023/04/10 01:21:42;;;;;;;6.95;6.25;;;4.10;99.90;;;;;;487260;244;28036;-74
2023/04/10 01:23:43;;;;;;;7.15;6.40;;;4.10;99.90;;;;;;487271;244;27876;-74
2023/04/10 01:25:45;;;;;;;9.00;6.90;;;4.20;99.90;;;;;;487181;244;27419;-74
2023/04/10 01:27:45;;;;;;;7.70;6.87;;;4.10;99.90;;;;;;487277;244;27395;-74
2023/04/10 01:29:47;;;;;;;9.50;7.30;;;4.10;99.90;;;;;;487302;243;27439;-74
2023/04/10 01:31:49;;;;;;;10.30;7.93;;;4.10;99.90;;;;;;487321;244;27446;-74
2023/04/10 01:33:49;;;;;;;10.23;7.70;;;4.20;99.90;;;;;;487233;244;27464;-75
2023/04/10 01:35:50;;;;;;;8.95;6.72;;;4.10;99.90;;;;;;487197;244;27576;-75
2023/04/10 01:37:52;;;;;;;9.05;6.80;;;4.10;99.90;;;;;;487244;244;27867;-74
2023/04/10 01:39:53;;;;;;;10.75;7.57;;;4.20;99.90;;;;;;487295;244;27985;-74
2023/04/10 01:41:55;;;;;;;8.52;6.80;;;4.20;99.90;;;;;;487278;244;27591;-75
2023/04/10 01:43:55;;;;;;;10.23;7.43;;;4.20;99.90;;;;;;487251;244;27396;-74
2023/04/10 01:45:57;;;;;;;9.80;7.70;;;4.20;99.90;;;;;;487211;244;27471;-74
2023/04/10 01:47:58;;;;;;;8.40;6.68;;;4.20;99.90;;;;;;487236;244;27447;-74
2023/04/10 01:50:00;;;;;;;8.88;6.90;;;4.20;99.90;;;;;;487275;244;27419;-75
2023/04/10 01:52:00;;;;;;;8.88;6.93;;;4.20;99.90;;;;;;487234;244;27467;-75
2023/04/10 01:54:02;;;;;;;8.25;6.87;;;4.20;99.90;;;;;;487242;244;27931;-74
2023/04/10 01:56:03;;;;;;;8.90;7.62;;;4.20;99.90;;;;;;487162;244;27925;-74
2023/04/10 01:58:04;;;;;;;8.35;7.10;;;4.30;99.90;;;;;;487230;244;28032;-75
2023/04/10 02:00:05;;;;;;;8.93;7.00;;;4.30;99.90;;;;;;487288;244;27482;-74
2023/04/10 02:02:07;;;;;;;10.27;7.95;;;4.40;99.90;;;;;;487271;244;27470;-74
2023/04/10 02:04:08;;;;;;;10.75;7.95;;;4.40;99.90;;;;;;487258;244;27383;-74
2023/04/10 02:06:09;;;;;;;7.87;6.80;;;4.40;99.90;;;;;;487198;244;27513;-75
2023/04/10 02:08:11;;;;;;;10.02;7.43;;;4.40;99.90;;;;;;487301;244;27444;-74
2023/04/10 02:10:12;;;;;;;9.40;7.78;;;4.50;99.90;;;;;;487288;244;27955;-74
2023/04/10 02:12:13;;;;;;;10.23;7.68;;;4.50;99.90;;;;;;487258;244;28048;-75
2023/04/10 02:14:15;;;;;;;9.38;8.00;;;4.50;99.90;;;;;;487226;244;27547;-74
2023/04/10 02:16:16;;;;;;;10.63;8.00;;;4.50;99.90;;;;;;487188;244;27517;-75
2023/04/10 02:18:17;;;;;;;10.70;8.60;;;4.50;99.90;;;;;;487231;244;27541;-74
2023/04/10 02:20:18;;;;;;;10.05;7.28;;;4.50;99.90;;;;;;487314;244;27406;-74
2023/04/10 02:22:20;;;;;;;9.38;7.30;;;4.50;99.90;;;;;;487286;244;27427;-74
2023/04/10 02:24:21;;;;;;;9.65;7.65;;;4.50;99.90;;;;;;487157;244;27474;-74
2023/04/10 02:26:22;;;;;;;9.70;7.60;;;4.50;99.90;;;;;;487242;244;28028;-74
2023/04/10 02:28:24;;;;;;;9.50;7.12;;;4.50;99.90;;;;;;487277;244;27969;-74
2023/04/10 02:30:24;;;;;;;8.82;6.93;;;4.50;99.90;;;;;;487283;244;27470;-74
2023/04/10 02:32:26;;;;;;;9.13;7.15;;;4.50;99.90;;;;;;487251;243;27436;-74
2023/04/10 02:34:27;;;;;;;8.27;7.12;;;4.50;99.90;;;;;;487196;244;27500;-74
2023/04/10 02:36:28;;;;;;;8.43;6.95;;;4.40;99.90;;;;;;487246;244;27537;-75
2023/04/10 02:38:29;;;;;;;9.75;7.80;;;4.40;99.90;;;;;;487270;244;27820;-74
2023/04/10 02:40:31;;;;;;;9.35;7.15;;;4.40;99.90;;;;;;487257;244;27534;-74
2023/04/10 02:42:32;;;;;;;9.32;7.78;;;4.50;99.90;;;;;;487267;244;27893;-75
2023/04/10 02:44:33;;;;;;;9.63;6.87;;;4.50;99.90;;;;;;487169;244;28013;-74
2023/04/10 02:46:34;;;;;;;8.73;7.22;;;4.50;99.90;;;;;;487220;243;29013;-74
2023/04/10 02:48:36;;;;;;;8.90;7.70;;;4.40;99.90;;;;;;487283;244;27422;-74
2023/04/10 02:50:37;;;;;;;11.15;8.15;;;4.40;99.90;;;;;;487267;244;27398;-74
2023/04/10 02:52:38;;;;;;;8.15;6.85;;;4.40;99.90;;;;;;487271;244;27426;-74
2023/04/10 02:54:39;;;;;;;9.63;7.95;;;4.30;99.90;;;;;;487161;244;27450;-73
2023/04/10 02:56:41;;;;;;;9.85;7.97;;;4.30;99.90;;;;;;487234;244;27545;-74
2023/04/10 02:58:45;;;;;;;9.15;7.25;;;4.30;99.90;;;;;;487274;244;27533;-75
2023/04/10 03:00:43;;;;;;;8.50;7.20;;;4.30;99.90;;;;;;487114;244;27879;-75
2023/04/10 03:02:44;;;;;;;9.68;7.62;;;4.30;99.90;;;;;;487244;244;27914;-75
2023/04/10 03:04:46;;;;;;;10.48;8.13;;;4.30;99.90;;;;;;487204;244;27430;-74
2023/04/10 03:06:47;;;;;;;10.43;7.55;;;4.30;99.90;;;;;;487266;243;27446;-74
2023/04/10 03:08:48;;;;;;;10.48;7.97;;;4.30;99.90;;;;;;487294;244;27446;-74
2023/04/10 03:10:49;;;;;;;10.25;7.60;;;4.30;99.90;;;;;;487290;244;27531;-74
2023/04/10 03:12:51;;;;;;;9.60;7.80;;;4.30;99.90;;;;;;487259;244;27455;-74
2023/04/10 03:14:52;;;;;;;12.05;7.80;;;4.20;99.90;;;;;;487166;244;27855;-74
2023/04/10 03:16:53;;;;;;;9.05;6.93;;;4.20;99.90;;;;;;487257;244;27954;-74
2023/04/10 03:18:55;;;;;;;9.02;7.47;;;4.20;99.90;;;;;;487272;244;28050;-74
2023/04/10 03:20:56;;;;;;;9.93;8.25;;;4.20;99.90;;;;;;487250;244;27454;-74
2023/04/10 03:22:57;;;;;;;10.18;8.20;;;4.20;99.90;;;;;;487233;244;27434;-74
2023/04/10 03:24:58;;;;;;;12.50;8.77;;;4.30;99.90;;;;;;487197;244;27404;-74
2023/04/10 03:27:00;;;;;;;10.48;8.60;;;4.30;99.90;;;;;;487250;244;27435;-74
2023/04/10 03:29:01;;;;;;;10.15;8.68;;;4.40;99.90;;;;;;487318;244;27439;-75
2023/04/10 03:31:02;;;;;;;9.18;7.20;;;4.40;99.90;;;;;;487299;244;27852;-75
2023/04/10 03:33:03;;;;;;;10.30;7.95;;;4.30;99.90;;;;;;487255;243;28028;-74
2023/04/10 03:35:05;;;;;;;8.32;6.55;;;4.10;99.90;;;;;;487149;244;27925;-74
2023/04/10 03:37:06;;;;;;;9.18;7.57;;;3.90;99.90;;;;;;487285;244;27394;-74
2023/04/10 03:39:07;;;;;;;8.73;7.70;;;3.70;99.90;;;;;;487291;244;27440;-74
2023/04/10 03:41:08;;;;;;;8.85;7.75;;;3.50;99.90;;;;;;487288;244;27378;-74
2023/04/10 03:43:10;;;;;;;9.95;8.00;;;3.50;99.90;;;;;;487256;244;27448;-74
2023/04/10 03:45:11;;;;;;;10.13;8.00;;;3.60;99.90;;;;;;487173;244;27438;-75
2023/04/10 03:47:12;;;;;;;9.27;7.47;;;3.70;99.90;;;;;;487275;244;27486;-74
2023/04/10 03:49:13;;;;;;;9.10;7.25;;;3.80;99.90;;;;;;487260;244;27915;-74
2023/04/10 03:51:15;;;;;;;9.25;7.50;;;3.80;99.90;;;;;;487262;244;27923;-74
2023/04/10 03:53:16;;;;;;;9.60;7.00;;;3.80;99.90;;;;;;487230;244;27986;-75
2023/04/10 03:55:21;;;;;;;10.82;8.18;;;3.90;99.90;;;;;;487171;244;27388;-74
2023/04/10 03:57:19;;;;;;;10.57;8.00;;;4.00;99.90;;;;;;486611;244;27402;-75
2023/04/10 03:59:20;;;;;;;12.32;8.65;;;3.90;99.90;;;;;;487229;244;27526;-74
2023/04/10 04:01:21;;;;;;;11.30;8.45;;;4.10;99.90;;;;;;487271;244;27450;-75
2023/04/10 04:03:22;;;;;;;11.90;8.63;;;4.20;99.90;;;;;;487236;244;27620;-74
2023/04/10 04:05:23;;;;;;;9.73;7.57;;;4.20;99.90;;;;;;487197;244;28110;-75
2023/04/10 04:07:25;;;;;;;10.05;7.43;;;4.20;99.90;;;;;;487311;244;27848;-74
2023/04/10 04:09:26;;;;;;;10.13;7.85;;;4.20;99.90;;;;;;487285;244;28011;-74
2023/04/10 04:11:27;;;;;;;9.35;7.32;;;4.10;99.90;;;;;;487247;244;27458;-75
2023/04/10 04:13:28;;;;;;;9.35;7.47;;;4.30;99.90;;;;;;487256;244;27403;-74
2023/04/10 04:15:30;;;;;;;9.30;6.85;;;4.20;99.90;;;;;;487200;244;27489;-75
2023/04/10 04:17:31;;;;;;;8.27;6.90;;;4.10;99.90;;;;;;487288;244;27527;-75
2023/04/10 04:19:32;;;;;;;8.95;7.37;;;4.10;99.90;;;;;;487227;244;27456;-74
2023/04/10 04:21:33;;;;;;;9.82;7.43;;;4.10;99.90;;;;;;487264;244;27483;-74
2023/04/10 04:23:35;;;;;;;12.10;8.05;;;4.20;99.90;;;;;;487258;243;27917;-74
2023/04/10 04:25:36;;;;;;;9.25;7.75;;;4.20;99.90;;;;;;487227;244;28126;-74
2023/04/10 04:27:37;;;;;;;7.22;6.43;;;4.10;99.90;;;;;;487285;244;27851;-74
2023/04/10 04:29:38;;;;;;;9.88;7.90;;;4.10;99.90;;;;;;487294;243;27463;-74
2023/04/10 04:31:40;;;;;;;9.70;7.72;;;4.30;99.90;;;;;;487261;244;27391;-75
2023/04/10 04:33:41;;;;;;;10.77;8.10;;;4.10;99.90;;;;;;486977;243;27436;-74
2023/04/10 04:35:42;;;;;;;9.93;7.85;;;4.30;99.90;;;;;;486984;244;27879;-74
2023/04/10 04:37:43;;;;;;;10.70;8.63;;;4.40;99.90;;;;;;487347;244;27495;-74
2023/04/10 04:39:45;;;;;;;10.90;8.35;;;4.50;99.90;;;;;;487296;244;27443;-74
2023/04/10 04:41:46;;;;;;;10.38;8.18;;;4.60;99.90;;;;;;487299;244;27835;-74
2023/04/10 04:43:48;;;;;;;10.65;8.25;;;4.70;99.90;;;;;;487261;244;27462;-74
2023/04/10 04:45:48;;;;;;;9.25;7.72;;;4.60;99.90;;;;;;487269;244;27537;-74
2023/04/10 04:47:50;;;;;;;10.20;7.55;;;4.60;99.90;;;;;;487317;244;27403;-74
2023/04/10 04:49:51;;;;;;;11.35;7.95;;;4.80;99.90;;;;;;487267;244;27580;-75
2023/04/10 04:51:52;;;;;;;10.70;8.45;;;4.70;99.90;;;;;;487232;244;27486;-75
2023/04/10 04:53:54;;;;;;;10.02;7.55;;;4.60;99.90;;;;;;487251;244;28065;-74
2023/04/10 04:55:55;;;;;;;10.50;8.45;;;4.70;99.90;;;;;;487259;244;28015;-74
2023/04/10 04:57:56;;;;;;;12.45;9.30;;;4.70;99.90;;;;;;487268;244;27458;-75
2023/04/10 04:59:57;;;;;;;9.05;7.80;;;4.70;99.90;;;;;;487284;244;27539;-75
2023/04/10 05:01:59;;;;;;;9.13;7.22;;;4.60;99.90;;;;;;487265;244;27390;-75
2023/04/10 05:04:00;;;;;;;9.27;7.30;;;4.60;99.90;;;;;;487229;244;27517;-74
2023/04/10 05:06:01;;;;;;;9.73;6.93;;;4.50;99.90;;;;;;487279;244;27783;-74
2023/04/10 05:08:02;;;;;;;8.07;6.72;;;4.50;99.90;;;;;;487297;244;27509;-74
2023/04/10 05:10:04;;;;;;;12.77;8.32;;;4.50;99.90;;;;;;487300;244;28049;-74
2023/04/10 05:12:05;;;;;;;8.32;6.57;;;4.50;99.90;;;;;;487270;243;27843;-74
2023/04/10 05:14:06;;;;;;;8.45;7.18;;;4.50;99.90;;;;;;487239;244;27428;-74
2023/04/10 05:16:07;;;;;;;8.80;6.62;;;4.60;99.90;;;;;;487212;244;27454;-75
2023/04/10 05:18:09;;;;;;;10.07;7.62;;;4.60;99.90;;;;;;487282;244;27388;-74
2023/04/10 05:20:10;;;;;;;9.95;7.47;;;4.70;99.90;;;;;;487237;244;27451;-74
2023/04/10 05:22:11;;;;;;;8.75;7.00;;;4.70;99.90;;;;;;487273;244;27446;-75
2023/04/10 05:24:12;;;;;;;7.55;6.68;;;4.70;99.90;;;;;;487259;244;27954;-75
2023/04/10 05:26:14;;;;;;;7.47;6.32;;;4.70;99.90;;;;;;487252;244;27927;-74
2023/04/10 05:28:15;;;;;;;8.35;7.10;;;4.70;99.90;;;;;;487253;244;27393;-74
2023/04/10 05:30:16;;;;;;;9.25;6.87;;;4.70;99.90;;;;;;487272;244;27515;-75
2023/04/10 05:32:17;;;;;;;10.85;7.65;;;4.70;99.90;;;;;;487257;244;27505;-74
2023/04/10 05:34:19;;;;;;;8.43;6.95;;;4.70;99.90;;;;;;487265;244;27490;-74
2023/04/10 05:36:20;;;;;;;8.55;7.20;;;4.70;99.90;;;;;;487296;244;27474;-74
2023/04/10 05:38:21;;;;;;;8.00;6.80;;;4.70;99.90;;;;;;487269;244;27926;-74
2023/04/10 05:40:23;;;;;;;7.90;6.37;;;4.80;99.90;;;;;;487243;244;27930;-74
2023/04/10 05:42:24;;;;;;;8.93;6.85;;;4.70;99.90;;;;;;487252;244;27526;-74
2023/04/10 05:44:25;;;;;;;8.95;6.93;;;4.80;99.90;;;;;;487234;244;27395;-74
2023/04/10 05:46:26;;;;;;;11.00;7.93;;;4.80;99.90;;;;;;487282;244;27470;-74
2023/04/10 05:48:28;;;;;;;9.50;7.18;;;4.90;99.90;;;;;;487256;244;27407;-74
2023/04/10 05:50:29;;;;;;;12.52;6.62;;;5.00;99.90;;;;;;487256;244;27434;-74
2023/04/10 05:52:30;;;;;;;7.40;6.35;;;5.00;99.90;;;;;;487290;244;28162;-74
2023/04/10 05:54:31;;;;;;;7.78;6.55;;;5.10;99.90;;;;;;487231;244;27901;-75
2023/04/10 05:56:33;;;;;;;7.12;6.20;;;5.10;99.90;;;;;;487198;244;27529;-75
2023/04/10 05:58:34;;;;;;;7.68;6.00;;;5.30;99.90;;;;;;487264;244;27383;-75
2023/04/10 06:00:36;;;;;;;6.30;5.70;;;5.40;99.90;;;;;;487248;244;27502;-73
2023/04/10 06:02:36;;;;;;;8.25;6.47;;;5.40;99.90;;;;;;487283;244;27454;-72
2023/04/10 06:04:38;;;;;;;8.07;6.25;;;5.50;99.90;;;;;;487250;244;27395;-75
2023/04/10 06:06:39;;;;;;;7.37;5.78;;;5.60;99.90;;;;;;487323;244;27953;-75
2023/04/10 06:08:40;;;;;;;6.65;5.95;;;5.60;99.90;;;;;;487307;244;27491;-75
2023/04/10 06:10:41;;;;;;;6.53;5.85;;;5.70;99.90;;;;;;487275;244;27431;-75
2023/04/10 06:12:43;;;;;;;6.72;5.75;;;5.80;99.90;;;;;;487317;244;27430;-74
2023/04/10 06:14:44;;;;;;;6.72;5.78;;;5.70;99.90;;;;;;487237;244;27484;-74
2023/04/10 06:16:45;;;;;;;5.80;5.20;;;5.80;99.90;;;;;;487321;244;27502;-75
2023/04/10 06:18:46;;;;;;;9.53;5.60;;;5.90;99.90;;;;;;487268;244;28826;-74
2023/04/10 06:20:48;;;;;;;8.20;6.30;;;6.00;99.90;;;;;;487258;244;28274;-75
2023/04/10 06:22:49;;;;;;;6.33;5.33;;;6.10;99.90;;;;;;487296;243;29465;-75
2023/04/10 06:24:50;;;;;;;8.57;5.73;;;6.30;99.90;;;;;;487266;244;28339;-74
2023/04/10 06:26:51;;;;;;;6.37;5.20;;;6.40;99.90;;;;;;487277;244;29099;-75
2023/04/10 06:28:53;;;;;;;6.10;5.50;;;6.40;99.90;;;;;;487248;244;28790;-75
2023/04/10 06:30:54;;;;;;;6.93;6.07;;;6.50;99.90;;;;;;487260;244;27999;-75
2023/04/10 06:32:55;;;;;;;7.03;5.00;;;6.60;99.90;;;;;;487293;244;27436;-75
2023/04/10 06:34:56;;;;;;;6.00;5.40;;;6.70;99.90;;;;;;487248;243;27475;-75
2023/04/10 06:36:58;;;;;;;6.00;5.00;;;6.70;99.90;;;;;;487235;243;28491;-75
2023/04/10 06:39:01;;;;;;;8.37;5.80;;;6.60;99.90;;;;;;487207;244;28009;-75
2023/04/10 06:41:00;;;;;;;6.93;5.97;;;6.70;99.90;;;;;;487112;244;27954;-74
2023/04/10 06:43:01;;;;;;;5.97;5.00;;;6.80;99.90;;;;;;487295;244;28793;-74
2023/04/10 06:45:03;;;;;;;6.00;5.20;;;6.80;99.90;;;;;;487238;244;28760;-75
2023/04/10 06:47:05;;;;;;;6.20;5.47;;;6.90;99.90;;;;;;487284;244;27587;-75
2023/04/10 06:49:05;;;;;;;6.10;5.10;;;6.90;99.90;;;;;;487215;244;28336;-75
2023/04/10 06:51:06;;;;;;;5.77;5.07;;;7.00;99.90;;;;;;487253;243;28202;-75
2023/04/10 06:53:08;;;;;;;6.70;5.60;;;7.20;99.90;;;;;;487282;244;28472;-75
2023/04/10 06:55:09;;;;;;;6.50;5.27;;;7.10;99.90;;;;;;487244;244;28219;-75
2023/04/10 06:57:10;;;;;;;8.00;5.60;;;7.10;99.90;;;;;;487267;243;28524;-75
2023/04/10 06:59:12;;;;;;;6.90;5.40;;;7.20;99.90;;;;;;487259;244;27784;-75
2023/04/10 07:01:13;;;;;;;5.47;4.80;;;7.20;99.90;;;;;;487262;244;27697;-75
2023/04/10 07:03:14;;;;;;;7.27;5.10;;;7.20;99.90;;;;;;487312;244;28086;-75
2023/04/10 07:05:15;;;;;;;5.77;4.83;;;7.20;99.90;;;;;;487267;244;27751;-75
2023/04/10 07:07:18;;;;;;;5.50;4.60;;;7.30;99.90;;;;;;487324;244;27939;-74
2023/04/10 07:09:18;;;;;;;5.93;5.00;;;7.30;99.90;;;;;;487251;244;27742;-75
2023/04/10 07:11:19;;;;;;;7.63;4.83;;;7.40;99.90;;;;;;487268;244;28132;-75
2023/04/10 07:13:20;;;;;;;5.97;5.00;;;7.40;99.90;;;;;;487300;244;27875;-75
2023/04/10 07:15:21;;;;;;;4.80;4.30;;;7.40;99.90;;;;;;487282;244;27876;-75
2023/04/10 07:17:23;;;;;;;6.17;4.80;;;7.70;99.90;;;;;;487300;244;27498;-75
2023/04/10 07:19:24;;;;;;;4.73;4.20;;;7.80;99.90;;;;;;487293;244;27865;-75
2023/04/10 07:21:26;;;;;;;4.93;4.43;;;7.90;99.90;;;;;;487265;244;27847;-75
2023/04/10 07:23:26;;;;;;;4.60;4.13;;;7.90;99.90;;;;;;487267;244;27751;-75
2023/04/10 07:25:28;;;;;;;5.90;5.17;;;8.10;99.90;;;;;;487265;244;27791;-75
2023/04/10 07:27:29;;;;;;;6.03;5.03;;;8.30;99.90;;;;;;487323;244;28269;-75
2023/04/10 07:29:30;;;;;;;6.20;4.97;;;8.30;99.90;;;;;;487339;244;28199;-75
2023/04/10 07:31:31;;;;;;;5.53;4.93;;;8.30;99.90;;;;;;487294;244;28516;-75
2023/04/10 07:33:33;;;;;;;4.47;4.07;;;8.40;99.90;;;;;;487302;244;28460;-75
2023/04/10 07:35:35;;;;;;;5.17;4.67;;;8.60;99.90;;;;;;487266;244;28442;-75
2023/04/10 07:37:35;;;;;;;6.23;4.70;;;8.60;99.90;;;;;;487326;244;28005;-75
2023/04/10 07:39:36;;;;;;;4.40;4.00;;;8.60;99.90;;;;;;487309;244;27966;-75
2023/04/10 07:41:38;;;;;;;4.70;4.20;;;8.70;99.90;;;;;;487310;244;27965;-76
2023/04/10 07:43:39;;;;;;;5.70;4.80;;;8.70;99.90;;;;;;487256;244;27863;-75
2023/04/10 07:45:40;;;;;;;4.17;3.77;;;8.90;99.90;;;;;;487257;244;27962;-75
2023/04/10 07:47:41;;;;;;;5.73;4.70;;;9.00;99.90;;;;;;487332;244;27423;-75
2023/04/10 07:49:43;;;;;;;5.50;4.87;;;9.00;99.90;;;;;;487317;244;27895;-75
2023/04/10 07:51:44;;;;;;;4.00;3.70;;;9.30;99.60;;;;;;487332;244;28016;-75
2023/04/10 07:53:45;;;;;;;4.50;4.10;;;9.30;99.90;;;;;;487316;244;27786;-75
2023/04/10 07:55:49;;;;;;;4.57;4.17;;;9.30;99.90;;;;;;487285;244;27985;-75
2023/04/10 07:57:51;;;;;;;4.20;3.80;;;9.40;99.60;;;;;;487270;244;28560;-75
2023/04/10 07:59:52;;;;;;;4.00;3.60;;;9.70;98.20;;;;;;487349;244;28696;-75
2023/04/10 08:01:53;;;;;;;4.07;3.60;;;9.70;95.90;;;;;;487335;244;28351;-75
2023/04/10 08:03:57;;;;;;;3.73;3.43;;;10.00;94.20;;;;;;487311;243;28379;-76
2023/04/10 08:05:55;;;;;;;3.97;3.40;;;10.00;95.10;;;;;;486679;244;27736;-75
2023/04/10 08:07:57;;;;;;;5.47;3.83;;;10.00;93.20;;;;;;487263;244;27886;-76
2023/04/10 08:09:58;;;;;;;3.80;3.40;;;10.10;92.40;;;;;;487320;244;28043;-75
2023/04/10 08:11:59;;;;;;;3.70;3.40;;;10.10;91.90;;;;;;487303;244;27839;-75
2023/04/10 08:14:04;;;;;;;3.30;3.00;;;10.20;91.70;;;;;;487282;243;27926;-75
2023/04/10 08:16:05;;;;;;;4.23;3.43;;;10.20;91.70;;;;;;487207;244;28288;-75
2023/04/10 08:18:06;;;;;;;3.77;3.43;;;10.30;90.70;;;;;;487289;244;28116;-75
2023/04/10 08:20:07;;;;;;;3.90;3.37;;;10.30;88.70;;;;;;487281;244;28002;-75
2023/04/10 08:22:08;;;;;;;3.87;3.03;;;10.40;89.30;;;;;;487350;244;27807;-75
2023/04/10 08:24:10;;;;;;;3.50;3.20;;;10.60;86.30;;;;;;487286;244;27979;-76
2023/04/10 08:26:11;;;;;;;3.83;3.43;;;10.50;86.30;;;;;;487254;244;27949;-75
2023/04/10 08:28:12;;;;;;;3.53;3.23;;;10.50;85.20;;;;;;487288;244;27932;-76
2023/04/10 08:30:13;;;;;;;3.30;3.00;;;10.60;84.70;;;;;;487287;244;27932;-76
2023/04/10 08:32:15;;;;;;;9.10;3.23;;;10.70;84.30;;;;;;487320;244;27952;-75
2023/04/10 08:34:16;;;;;;;3.83;3.40;;;10.80;83.20;;;;;;487258;244;27868;-76
2023/04/10 08:36:17;;;;;;;2.90;2.70;;;10.90;80.70;;;;;;487248;244;28250;-75
2023/04/10 08:38:20;;;;;;;3.00;2.80;;;10.90;81.10;;;;;;487250;244;28568;-76
2023/04/10 08:40:20;;;;;;;6.00;3.30;;;10.90;82.20;;;;;;487250;244;28550;-75
2023/04/10 08:42:21;;;;;;;3.20;2.90;;;11.00;81.70;;;;;;487285;244;28652;-76
2023/04/10 08:44:22;;;;;;;3.20;2.90;;;11.20;82.10;;;;;;487234;244;28246;-76
2023/04/10 08:46:25;;;;;;;3.20;2.70;;;11.20;77.60;;;;;;487268;244;28254;-75
2023/04/10 08:48:25;;;;;;;3.10;2.90;;;11.40;82.00;;;;;;487223;244;28130;-76
2023/04/10 08:50:26;;;;;;;2.70;2.50;;;11.60;77.10;;;;;;487320;244;28134;-76
2023/04/10 08:52:27;;;;;;;2.93;2.70;;;11.60;77.80;;;;;;487301;244;28276;-76
2023/04/10 08:54:28;;;;;;;3.97;3.07;;;11.70;76.20;;;;;;487242;244;28251;-75
2023/04/10 08:56:30;;;;;;;2.87;2.63;;;11.70;75.20;;;;;;487279;244;28118;-76
2023/04/10 08:58:31;;;;;;;4.17;3.00;;;11.70;76.30;;;;;;487284;244;28304;-75
2023/04/10 09:00:33;;;;;;;2.90;2.70;;;11.70;75.30;;;;;;487300;244;28467;-75
2023/04/10 09:02:33;;;;;;;2.93;2.73;;;11.80;74.50;;;;;;487250;244;28793;-76
2023/04/10 09:04:35;;;;;;;2.87;2.67;;;11.90;74.80;;;;;;487234;244;28913;-75
2023/04/10 09:06:36;;;;;;;3.37;2.67;;;11.90;72.70;;;;;;487271;244;28804;-76
2023/04/10 09:08:37;;;;;;;2.93;2.63;;;12.00;73.70;;;;;;487276;244;28527;-75
2023/04/10 09:10:38;;;;;;;3.13;2.70;;;12.20;71.80;;;;;;487283;243;28232;-76
2023/04/10 09:12:40;;;;;;;3.00;2.50;;;12.30;71.00;;;;;;487308;244;28354;-76
2023/04/10 09:14:41;;;;;;;3.00;2.80;;;12.20;71.00;;;;;;487277;244;28085;-76
2023/04/10 09:16:42;;;;;;;3.10;2.80;;;12.20;72.20;;;;;;487269;244;28385;-76
2023/04/10 09:18:43;;;;;;;2.90;2.70;;;12.20;69.30;;;;;;487275;243;28243;-75
2023/04/10 09:20:50;;;;;;;2.67;2.47;;;12.20;67.70;;;;;;487307;244;28752;-75
2023/04/10 09:22:46;;;;;;;2.70;2.50;;;12.10;67.40;;;;;;486879;244;28807;-76
2023/04/10 09:24:47;;;;;;;2.77;2.53;;;12.20;67.90;;;;;;487238;244;28901;-75
2023/04/10 09:26:48;;;;;;;3.07;2.70;;;12.20;67.50;;;;;;487248;244;28662;-76
2023/04/10 09:28:50;;;;;;;2.93;2.60;;;12.40;92.40;;;;;;487297;244;30363;-75
2023/04/10 09:30:51;;;;;;;2.70;2.50;;;12.30;92.50;;;;;;487326;244;28048;-75
2023/04/10 09:32:52;;;;;;;2.50;2.30;;;12.20;92.20;;;;;;487300;244;28143;-76
2023/04/10 09:34:53;;;;;;;2.67;2.47;;;12.10;92.60;;;;;;487250;244;28739;-75
2023/04/10 09:36:55;;;;;;;3.43;2.93;;;12.10;93.10;;;;;;487258;244;28364;-76
2023/04/10 09:38:57;;;;;;;3.27;2.77;;;;;;;;;;487275;244;28348;-76
2023/04/10 09:40:58;;;;;;;2.67;2.47;;;12.20;90.70;;;;;;487331;244;27570;-76
2023/04/10 09:43:00;;;;;;;3.20;2.90;;;12.30;90.80;;;;;;487261;244;28383;-75
2023/04/10 09:45:01;;;;;;;2.70;2.50;;;12.50;90.60;;;;;;487217;244;28215;-75
2023/04/10 09:47:02;;;;;;;2.70;2.50;;;12.50;90.60;;;;;;487259;244;28351;-76
2023/04/10 09:49:06;;;;;;;2.77;2.57;;;12.50;91.20;;;;;;487298;244;28092;-76
2023/04/10 09:51:07;;;;;;;2.70;2.50;;;12.60;90.40;;;;;;487244;244;28367;-76
2023/04/10 09:53:09;;;;;;;3.50;2.47;;;12.70;90.70;;;;;;487314;244;28354;-76
2023/04/10 09:55:10;;;;;;;3.60;2.80;;;12.80;89.90;;;;;;487254;244;28126;-76
2023/04/10 09:57:12;;;;;;;3.03;2.83;;;12.70;89.80;;;;;;487276;244;28403;-76
2023/04/10 09:59:12;;;;;;;3.03;2.80;;;12.80;90.90;;;;;;487196;244;28635;-76
2023/04/10 10:01:14;;;;;;;2.93;2.73;;;13.00;90.30;;;;;;487291;244;28366;-76
2023/04/10 10:03:15;;;;;;;2.47;2.27;;;13.10;90.30;;;;;;487319;244;28801;-76
2023/04/10 10:05:16;;;;;;;2.43;2.33;;;13.10;89.10;;;;;;487104;244;29213;-76
2023/04/10 10:07:17;;;;;;;2.77;2.57;;;13.20;90.60;;;;;;487228;244;28649;-76
2023/04/10 10:09:19;;;;;;;2.90;2.70;;;13.30;90.40;;;;;;487262;244;28597;-75
2023/04/10 10:11:20;;;;;;;3.03;2.60;;;13.50;90.30;;;;;;487312;244;28131;-76
2023/04/10 10:13:22;;;;;;;3.00;2.80;;;;;;;;;;487304;244;28316;-76
2023/04/10 10:15:24;;;;;;;2.90;2.60;;;13.90;84.80;;;;;;487157;244;26525;-76
2023/04/10 10:17:25;;;;;;;2.77;2.57;;;14.00;83.00;;;;;;487238;244;28745;-76
2023/04/10 10:19:26;;;;;;;3.80;3.00;;;14.10;82.50;;;;;;487271;244;29067;-75
2023/04/10 10:21:28;;;;;;;3.03;2.73;;;14.10;82.80;;;;;;487267;244;28994;-76
2023/04/10 10:23:29;;;;;;;3.30;2.80;;;14.00;82.00;;;;;;487277;244;28331;-76
2023/04/10 10:25:30;;;;;;;2.87;2.60;;;14.00;83.30;;;;;;487203;244;28540;-76
2023/04/10 10:27:34;;;;;;;2.80;2.60;;;14.10;83.50;;;;;;487215;244;28882;-76
2023/04/10 10:29:35;;;;;;;2.70;2.50;;;14.20;86.10;;;;;;487246;244;29218;-76
2023/04/10 10:31:36;;;;;;;2.80;2.60;;;14.40;86.00;;;;;;487264;244;30113;-76
2023/04/10 10:33:38;;;;;;;3.00;2.73;;;14.50;82.60;;;;;;487309;244;29336;-75
2023/04/10 10:35:39;;;;;;;2.60;2.40;;;14.40;84.40;;;;;;487164;244;28742;-76